sensor_id;sensor_type;location;lat;lon;timestamp;P1;durP1;ratioP1;P2;durP2;ratioP2
38113;SDS011;23926;53.222;6.354;2023-09-19T00:01:05;4.57;;;3.22;;
38113;SDS011;23926;53.222;6.354;2023-09-19T00:03:33;3.90;;;3.25;;
38113;SDS011;23926;53.222;6.354;2023-09-19T00:06:02;4.13;;;2.78;;
38113;SDS011;23926;53.222;6.354;2023-09-19T00:08:28;6.72;;;5.70;;
38113;SDS011;23926;53.222;6.354;2023-09-19T00:10:53;6.32;;;3.90;;
38113;SDS011;23926;53.222;6.354;2023-09-19T00:13:19;5.38;;;4.55;;
38113;SDS011;23926;53.222;6.354;2023-09-19T00:15:46;6.93;;;4.63;;
38113;SDS011;23926;53.222;6.354;2023-09-19T00:18:13;17.63;;;8.43;;
38113;SDS011;23926;53.222;6.354;2023-09-19T00:20:40;11.70;;;10.70;;
38113;SDS011;23926;53.222;6.354;2023-09-19T00:23:07;7.15;;;4.68;;
38113;SDS011;23926;53.222;6.354;2023-09-19T00:25:36;23.27;;;7.72;;
38113;SDS011;23926;53.222;6.354;2023-09-19T00:28:02;7.30;;;3.90;;
38113;SDS011;23926;53.222;6.354;2023-09-19T00:30:29;4.60;;;4.20;;
38113;SDS011;23926;53.222;6.354;2023-09-19T00:32:55;6.28;;;3.58;;
38113;SDS011;23926;53.222;6.354;2023-09-19T00:35:20;5.60;;;3.10;;
38113;SDS011;23926;53.222;6.354;2023-09-19T00:37:49;4.40;;;2.08;;
38113;SDS011;23926;53.222;6.354;2023-09-19T00:40:15;5.65;;;1.77;;
38113;SDS011;23926;53.222;6.354;2023-09-19T00:42:45;6.63;;;2.97;;
38113;SDS011;23926;53.222;6.354;2023-09-19T00:45:12;8.65;;;2.88;;
38113;SDS011;23926;53.222;6.354;2023-09-19T00:47:45;4.53;;;1.98;;
38113;SDS011;23926;53.222;6.354;2023-09-19T00:50:17;7.28;;;2.50;;
38113;SDS011;23926;53.222;6.354;2023-09-19T00:52:43;5.90;;;2.15;;
38113;SDS011;23926;53.222;6.354;2023-09-19T00:55:11;12.65;;;2.75;;
38113;SDS011;23926;53.222;6.354;2023-09-19T00:57:38;4.25;;;2.28;;
38113;SDS011;23926;53.222;6.354;2023-09-19T01:00:05;11.95;;;2.88;;
38113;SDS011;23926;53.222;6.354;2023-09-19T01:02:32;5.65;;;2.22;;
38113;SDS011;23926;53.222;6.354;2023-09-19T01:05:01;11.70;;;2.33;;
38113;SDS011;23926;53.222;6.354;2023-09-19T01:07:29;9.90;;;2.38;;
38113;SDS011;23926;53.222;6.354;2023-09-19T01:09:56;7.00;;;2.85;;
38113;SDS011;23926;53.222;6.354;2023-09-19T01:12:27;4.88;;;2.00;;
38113;SDS011;23926;53.222;6.354;2023-09-19T01:28:39;3.47;;;1.92;;
38113;SDS011;23926;53.222;6.354;2023-09-19T01:31:19;8.38;;;2.60;;
38113;SDS011;23926;53.222;6.354;2023-09-19T01:34:19;3.10;;;2.00;;
38113;SDS011;23926;53.222;6.354;2023-09-19T01:36:37;5.55;;;2.35;;
38113;SDS011;23926;53.222;6.354;2023-09-19T01:39:07;5.97;;;2.13;;
38113;SDS011;23926;53.222;6.354;2023-09-19T01:41:45;7.90;;;2.17;;
38113;SDS011;23926;53.222;6.354;2023-09-19T01:44:54;7.43;;;2.97;;
38113;SDS011;23926;53.222;6.354;2023-09-19T01:47:32;4.53;;;2.80;;
38113;SDS011;23926;53.222;6.354;2023-09-19T01:50:17;5.15;;;2.10;;
38113;SDS011;23926;53.222;6.354;2023-09-19T01:52:57;3.67;;;1.70;;
38113;SDS011;23926;53.222;6.354;2023-09-19T01:55:29;4.70;;;1.80;;
38113;SDS011;23926;53.222;6.354;2023-09-19T01:58:01;5.40;;;1.90;;
38113;SDS011;23926;53.222;6.354;2023-09-19T02:00:32;5.70;;;2.10;;
38113;SDS011;23926;53.222;6.354;2023-09-19T02:03:01;5.38;;;2.08;;
38113;SDS011;23926;53.222;6.354;2023-09-19T02:05:28;7.55;;;2.53;;
38113;SDS011;23926;53.222;6.354;2023-09-19T02:07:54;4.72;;;1.80;;
38113;SDS011;23926;53.222;6.354;2023-09-19T02:10:20;6.63;;;2.22;;
38113;SDS011;23926;53.222;6.354;2023-09-19T02:12:46;4.80;;;2.40;;
38113;SDS011;23926;53.222;6.354;2023-09-19T02:15:12;4.00;;;2.05;;
38113;SDS011;23926;53.222;6.354;2023-09-19T02:17:40;5.35;;;1.88;;
38113;SDS011;23926;53.222;6.354;2023-09-19T02:20:07;3.25;;;2.00;;
38113;SDS011;23926;53.222;6.354;2023-09-19T02:22:35;6.30;;;2.65;;
38113;SDS011;23926;53.222;6.354;2023-09-19T02:25:00;6.57;;;2.28;;
38113;SDS011;23926;53.222;6.354;2023-09-19T02:27:26;2.53;;;1.67;;
38113;SDS011;23926;53.222;6.354;2023-09-19T02:29:52;4.45;;;1.77;;
38113;SDS011;23926;53.222;6.354;2023-09-19T02:32:17;9.68;;;2.15;;
38113;SDS011;23926;53.222;6.354;2023-09-19T02:34:43;8.05;;;2.08;;
38113;SDS011;23926;53.222;6.354;2023-09-19T02:37:09;6.45;;;2.28;;
38113;SDS011;23926;53.222;6.354;2023-09-19T02:39:35;4.82;;;2.13;;
38113;SDS011;23926;53.222;6.354;2023-09-19T02:42:01;7.82;;;2.20;;
38113;SDS011;23926;53.222;6.354;2023-09-19T02:44:26;3.20;;;1.77;;
38113;SDS011;23926;53.222;6.354;2023-09-19T02:46:52;6.28;;;2.28;;
38113;SDS011;23926;53.222;6.354;2023-09-19T02:49:18;3.80;;;2.03;;
38113;SDS011;23926;53.222;6.354;2023-09-19T02:51:43;9.95;;;2.63;;
38113;SDS011;23926;53.222;6.354;2023-09-19T02:54:10;4.28;;;2.22;;
38113;SDS011;23926;53.222;6.354;2023-09-19T02:56:36;7.63;;;2.63;;
38113;SDS011;23926;53.222;6.354;2023-09-19T02:59:02;8.32;;;2.20;;
38113;SDS011;23926;53.222;6.354;2023-09-19T03:01:28;4.97;;;2.13;;
38113;SDS011;23926;53.222;6.354;2023-09-19T03:03:54;5.32;;;1.85;;
38113;SDS011;23926;53.222;6.354;2023-09-19T03:06:20;5.93;;;2.00;;
38113;SDS011;23926;53.222;6.354;2023-09-19T03:08:46;9.18;;;1.90;;
38113;SDS011;23926;53.222;6.354;2023-09-19T03:11:13;11.63;;;2.33;;
38113;SDS011;23926;53.222;6.354;2023-09-19T03:13:40;7.32;;;1.65;;
38113;SDS011;23926;53.222;6.354;2023-09-19T03:16:06;3.67;;;1.73;;
38113;SDS011;23926;53.222;6.354;2023-09-19T03:18:35;7.90;;;2.35;;
38113;SDS011;23926;53.222;6.354;2023-09-19T03:21:01;4.68;;;2.35;;
38113;SDS011;23926;53.222;6.354;2023-09-19T03:23:26;6.88;;;1.88;;
38113;SDS011;23926;53.222;6.354;2023-09-19T03:25:53;1.73;;;1.42;;
38113;SDS011;23926;53.222;6.354;2023-09-19T03:28:19;3.50;;;1.67;;
38113;SDS011;23926;53.222;6.354;2023-09-19T03:30:45;8.50;;;1.90;;
38113;SDS011;23926;53.222;6.354;2023-09-19T03:33:11;2.85;;;1.58;;
38113;SDS011;23926;53.222;6.354;2023-09-19T03:35:37;2.47;;;1.63;;
38113;SDS011;23926;53.222;6.354;2023-09-19T03:38:05;5.45;;;1.48;;
38113;SDS011;23926;53.222;6.354;2023-09-19T03:40:30;5.82;;;1.83;;
38113;SDS011;23926;53.222;6.354;2023-09-19T03:42:56;5.25;;;2.20;;
38113;SDS011;23926;53.222;6.354;2023-09-19T03:45:21;3.05;;;1.67;;
38113;SDS011;23926;53.222;6.354;2023-09-19T03:47:47;4.32;;;1.77;;
38113;SDS011;23926;53.222;6.354;2023-09-19T03:50:12;13.73;;;1.60;;
38113;SDS011;23926;53.222;6.354;2023-09-19T03:52:42;5.18;;;1.60;;
38113;SDS011;23926;53.222;6.354;2023-09-19T03:55:08;2.17;;;1.45;;
38113;SDS011;23926;53.222;6.354;2023-09-19T03:57:34;1.48;;;0.90;;
38113;SDS011;23926;53.222;6.354;2023-09-19T04:00:01;3.42;;;1.90;;
38113;SDS011;23926;53.222;6.354;2023-09-19T04:02:26;1.63;;;1.35;;
38113;SDS011;23926;53.222;6.354;2023-09-19T04:04:57;4.72;;;1.70;;
38113;SDS011;23926;53.222;6.354;2023-09-19T04:07:23;3.03;;;1.38;;
38113;SDS011;23926;53.222;6.354;2023-09-19T04:09:51;4.05;;;2.00;;
38113;SDS011;23926;53.222;6.354;2023-09-19T04:12:18;4.95;;;2.45;;
38113;SDS011;23926;53.222;6.354;2023-09-19T04:14:44;6.80;;;2.00;;
38113;SDS011;23926;53.222;6.354;2023-09-19T04:17:09;11.63;;;2.28;;
38113;SDS011;23926;53.222;6.354;2023-09-19T04:19:35;3.60;;;2.03;;
38113;SDS011;23926;53.222;6.354;2023-09-19T04:22:01;3.53;;;1.58;;
38113;SDS011;23926;53.222;6.354;2023-09-19T04:24:27;10.10;;;2.17;;
38113;SDS011;23926;53.222;6.354;2023-09-19T04:26:53;2.95;;;1.80;;
38113;SDS011;23926;53.222;6.354;2023-09-19T04:29:18;5.40;;;2.03;;
38113;SDS011;23926;53.222;6.354;2023-09-19T04:31:45;4.43;;;1.98;;
38113;SDS011;23926;53.222;6.354;2023-09-19T04:34:11;4.88;;;1.70;;
38113;SDS011;23926;53.222;6.354;2023-09-19T04:36:42;6.90;;;2.00;;
38113;SDS011;23926;53.222;6.354;2023-09-19T04:39:08;6.45;;;2.05;;
38113;SDS011;23926;53.222;6.354;2023-09-19T04:41:36;4.35;;;1.73;;
38113;SDS011;23926;53.222;6.354;2023-09-19T04:44:04;1.92;;;1.70;;
38113;SDS011;23926;53.222;6.354;2023-09-19T04:46:30;7.18;;;2.08;;
38113;SDS011;23926;53.222;6.354;2023-09-19T04:48:55;3.50;;;1.45;;
38113;SDS011;23926;53.222;6.354;2023-09-19T04:51:21;6.10;;;1.83;;
38113;SDS011;23926;53.222;6.354;2023-09-19T04:53:46;1.65;;;0.95;;
38113;SDS011;23926;53.222;6.354;2023-09-19T04:56:13;1.45;;;1.27;;
38113;SDS011;23926;53.222;6.354;2023-09-19T04:58:38;7.78;;;2.10;;
38113;SDS011;23926;53.222;6.354;2023-09-19T05:01:04;4.35;;;2.55;;
38113;SDS011;23926;53.222;6.354;2023-09-19T05:03:30;5.10;;;2.08;;
38113;SDS011;23926;53.222;6.354;2023-09-19T05:05:55;4.15;;;2.13;;
38113;SDS011;23926;53.222;6.354;2023-09-19T05:08:20;10.43;;;2.00;;
38113;SDS011;23926;53.222;6.354;2023-09-19T05:10:47;2.70;;;1.88;;
38113;SDS011;23926;53.222;6.354;2023-09-19T05:13:14;4.10;;;1.85;;
38113;SDS011;23926;53.222;6.354;2023-09-19T05:15:39;3.95;;;2.20;;
38113;SDS011;23926;53.222;6.354;2023-09-19T05:18:05;5.22;;;2.50;;
38113;SDS011;23926;53.222;6.354;2023-09-19T05:20:31;4.35;;;2.28;;
38113;SDS011;23926;53.222;6.354;2023-09-19T05:23:01;6.25;;;3.13;;
38113;SDS011;23926;53.222;6.354;2023-09-19T05:25:28;6.18;;;2.75;;
38113;SDS011;23926;53.222;6.354;2023-09-19T05:27:56;3.03;;;2.05;;
38113;SDS011;23926;53.222;6.354;2023-09-19T05:30:23;15.00;;;3.20;;
38113;SDS011;23926;53.222;6.354;2023-09-19T05:32:48;5.25;;;2.50;;
38113;SDS011;23926;53.222;6.354;2023-09-19T05:35:14;6.68;;;2.55;;
38113;SDS011;23926;53.222;6.354;2023-09-19T05:37:39;6.30;;;3.10;;
38113;SDS011;23926;53.222;6.354;2023-09-19T05:40:05;7.25;;;2.83;;
38113;SDS011;23926;53.222;6.354;2023-09-19T05:42:32;4.97;;;4.43;;
38113;SDS011;23926;53.222;6.354;2023-09-19T05:44:59;8.05;;;2.63;;
38113;SDS011;23926;53.222;6.354;2023-09-19T05:47:25;4.13;;;2.55;;
38113;SDS011;23926;53.222;6.354;2023-09-19T05:49:50;8.88;;;3.05;;
38113;SDS011;23926;53.222;6.354;2023-09-19T05:52:17;8.93;;;1.77;;
38113;SDS011;23926;53.222;6.354;2023-09-19T05:54:43;3.40;;;1.90;;
38113;SDS011;23926;53.222;6.354;2023-09-19T05:57:08;6.47;;;2.35;;
38113;SDS011;23926;53.222;6.354;2023-09-19T05:59:35;12.07;;;2.15;;
38113;SDS011;23926;53.222;6.354;2023-09-19T06:02:01;4.63;;;2.47;;
38113;SDS011;23926;53.222;6.354;2023-09-19T06:04:26;3.00;;;1.50;;
38113;SDS011;23926;53.222;6.354;2023-09-19T06:06:51;2.90;;;1.88;;
38113;SDS011;23926;53.222;6.354;2023-09-19T06:09:17;3.63;;;1.65;;
38113;SDS011;23926;53.222;6.354;2023-09-19T06:11:44;4.38;;;1.85;;
38113;SDS011;23926;53.222;6.354;2023-09-19T06:14:09;7.35;;;2.55;;
38113;SDS011;23926;53.222;6.354;2023-09-19T06:16:35;5.93;;;2.28;;
38113;SDS011;23926;53.222;6.354;2023-09-19T06:19:03;6.25;;;2.22;;
38113;SDS011;23926;53.222;6.354;2023-09-19T06:21:31;3.72;;;1.80;;
38113;SDS011;23926;53.222;6.354;2023-09-19T06:23:57;11.32;;;1.92;;
38113;SDS011;23926;53.222;6.354;2023-09-19T06:26:23;3.45;;;1.42;;
38113;SDS011;23926;53.222;6.354;2023-09-19T06:28:48;8.02;;;1.60;;
38113;SDS011;23926;53.222;6.354;2023-09-19T06:31:14;3.35;;;1.33;;
38113;SDS011;23926;53.222;6.354;2023-09-19T06:33:39;7.57;;;2.47;;
38113;SDS011;23926;53.222;6.354;2023-09-19T06:36:05;7.43;;;2.38;;
38113;SDS011;23926;53.222;6.354;2023-09-19T06:38:31;5.40;;;2.20;;
38113;SDS011;23926;53.222;6.354;2023-09-19T06:40:59;8.85;;;2.58;;
38113;SDS011;23926;53.222;6.354;2023-09-19T06:43:26;4.32;;;2.00;;
38113;SDS011;23926;53.222;6.354;2023-09-19T06:45:51;2.17;;;1.45;;
38113;SDS011;23926;53.222;6.354;2023-09-19T06:48:19;6.13;;;1.50;;
38113;SDS011;23926;53.222;6.354;2023-09-19T06:50:46;3.65;;;1.98;;
38113;SDS011;23926;53.222;6.354;2023-09-19T06:53:13;10.18;;;2.78;;
38113;SDS011;23926;53.222;6.354;2023-09-19T06:55:38;9.73;;;3.17;;
38113;SDS011;23926;53.222;6.354;2023-09-19T06:58:04;5.32;;;2.10;;
38113;SDS011;23926;53.222;6.354;2023-09-19T07:00:31;8.80;;;1.95;;
38113;SDS011;23926;53.222;6.354;2023-09-19T07:05:30;3.30;;;1.67;;
38113;SDS011;23926;53.222;6.354;2023-09-19T07:07:57;5.78;;;2.00;;
38113;SDS011;23926;53.222;6.354;2023-09-19T07:10:26;4.47;;;1.80;;
38113;SDS011;23926;53.222;6.354;2023-09-19T07:12:59;4.70;;;2.10;;
38113;SDS011;23926;53.222;6.354;2023-09-19T07:15:26;2.83;;;1.88;;
38113;SDS011;23926;53.222;6.354;2023-09-19T07:17:53;7.28;;;2.30;;
38113;SDS011;23926;53.222;6.354;2023-09-19T07:20:19;3.15;;;1.50;;
38113;SDS011;23926;53.222;6.354;2023-09-19T07:22:45;1.45;;;1.25;;
38113;SDS011;23926;53.222;6.354;2023-09-19T07:25:12;13.32;;;1.75;;
38113;SDS011;23926;53.222;6.354;2023-09-19T07:27:39;8.35;;;2.33;;
38113;SDS011;23926;53.222;6.354;2023-09-19T07:30:06;9.07;;;2.55;;
38113;SDS011;23926;53.222;6.354;2023-09-19T07:32:33;4.20;;;2.20;;
38113;SDS011;23926;53.222;6.354;2023-09-19T07:35:01;10.10;;;2.78;;
38113;SDS011;23926;53.222;6.354;2023-09-19T07:37:28;10.07;;;2.55;;
38113;SDS011;23926;53.222;6.354;2023-09-19T07:39:54;10.00;;;2.53;;
38113;SDS011;23926;53.222;6.354;2023-09-19T07:42:19;6.00;;;2.22;;
38113;SDS011;23926;53.222;6.354;2023-09-19T07:44:45;5.90;;;2.08;;
38113;SDS011;23926;53.222;6.354;2023-09-19T07:47:16;8.88;;;2.85;;
38113;SDS011;23926;53.222;6.354;2023-09-19T07:49:41;4.15;;;2.05;;
38113;SDS011;23926;53.222;6.354;2023-09-19T07:52:07;3.40;;;1.85;;
38113;SDS011;23926;53.222;6.354;2023-09-19T07:54:34;6.72;;;2.40;;
38113;SDS011;23926;53.222;6.354;2023-09-19T07:57:01;5.38;;;2.38;;
38113;SDS011;23926;53.222;6.354;2023-09-19T07:59:27;7.65;;;2.30;;
38113;SDS011;23926;53.222;6.354;2023-09-19T08:01:53;10.27;;;2.28;;
38113;SDS011;23926;53.222;6.354;2023-09-19T08:04:18;8.55;;;2.33;;
38113;SDS011;23926;53.222;6.354;2023-09-19T08:06:44;9.68;;;2.42;;
38113;SDS011;23926;53.222;6.354;2023-09-19T08:09:10;3.97;;;1.92;;
38113;SDS011;23926;53.222;6.354;2023-09-19T08:11:37;7.72;;;2.50;;
38113;SDS011;23926;53.222;6.354;2023-09-19T08:14:04;5.47;;;2.60;;
38113;SDS011;23926;53.222;6.354;2023-09-19T08:16:32;5.97;;;2.70;;
38113;SDS011;23926;53.222;6.354;2023-09-19T08:18:58;4.63;;;2.50;;
38113;SDS011;23926;53.222;6.354;2023-09-19T08:21:23;7.40;;;2.13;;
38113;SDS011;23926;53.222;6.354;2023-09-19T08:23:49;7.28;;;2.13;;
38113;SDS011;23926;53.222;6.354;2023-09-19T08:26:15;2.65;;;1.70;;
38113;SDS011;23926;53.222;6.354;2023-09-19T08:28:40;4.35;;;2.05;;
38113;SDS011;23926;53.222;6.354;2023-09-19T08:31:06;4.55;;;1.85;;
38113;SDS011;23926;53.222;6.354;2023-09-19T08:33:33;9.05;;;2.38;;
38113;SDS011;23926;53.222;6.354;2023-09-19T08:36:00;14.93;;;3.17;;
38113;SDS011;23926;53.222;6.354;2023-09-19T08:38:30;5.63;;;2.22;;
38113;SDS011;23926;53.222;6.354;2023-09-19T08:40:58;5.40;;;2.58;;
38113;SDS011;23926;53.222;6.354;2023-09-19T08:43:26;8.15;;;2.70;;
38113;SDS011;23926;53.222;6.354;2023-09-19T08:45:57;5.13;;;2.97;;
38113;SDS011;23926;53.222;6.354;2023-09-19T08:48:28;10.30;;;2.20;;
38113;SDS011;23926;53.222;6.354;2023-09-19T08:51:39;6.97;;;2.97;;
38113;SDS011;23926;53.222;6.354;2023-09-19T08:53:54;4.53;;;2.17;;
38113;SDS011;23926;53.222;6.354;2023-09-19T08:56:24;3.72;;;1.85;;
38113;SDS011;23926;53.222;6.354;2023-09-19T08:58:55;8.20;;;2.25;;
38113;SDS011;23926;53.222;6.354;2023-09-19T09:01:24;7.30;;;2.80;;
38113;SDS011;23926;53.222;6.354;2023-09-19T09:03:53;5.05;;;2.15;;
38113;SDS011;23926;53.222;6.354;2023-09-19T09:06:19;4.95;;;2.03;;
38113;SDS011;23926;53.222;6.354;2023-09-19T09:08:46;20.88;;;3.08;;
38113;SDS011;23926;53.222;6.354;2023-09-19T09:11:12;5.03;;;2.00;;
38113;SDS011;23926;53.222;6.354;2023-09-19T09:13:39;6.78;;;2.40;;
38113;SDS011;23926;53.222;6.354;2023-09-19T09:16:06;6.53;;;3.13;;
38113;SDS011;23926;53.222;6.354;2023-09-19T09:18:32;11.57;;;3.17;;
38113;SDS011;23926;53.222;6.354;2023-09-19T09:20:58;10.23;;;2.80;;
38113;SDS011;23926;53.222;6.354;2023-09-19T09:23:23;10.73;;;2.40;;
38113;SDS011;23926;53.222;6.354;2023-09-19T09:25:51;5.43;;;2.70;;
38113;SDS011;23926;53.222;6.354;2023-09-19T09:28:22;19.40;;;3.60;;
38113;SDS011;23926;53.222;6.354;2023-09-19T09:30:48;7.05;;;3.03;;
38113;SDS011;23926;53.222;6.354;2023-09-19T09:33:15;6.30;;;2.78;;
38113;SDS011;23926;53.222;6.354;2023-09-19T09:38:24;7.32;;;2.05;;
38113;SDS011;23926;53.222;6.354;2023-09-19T09:40:57;4.90;;;2.70;;
38113;SDS011;23926;53.222;6.354;2023-09-19T09:43:35;9.23;;;2.55;;
38113;SDS011;23926;53.222;6.354;2023-09-19T09:46:13;9.15;;;2.75;;
38113;SDS011;23926;53.222;6.354;2023-09-19T09:51:39;9.13;;;3.00;;
38113;SDS011;23926;53.222;6.354;2023-09-19T10:02:43;8.23;;;2.67;;
38113;SDS011;23926;53.222;6.354;2023-09-19T10:05:15;7.80;;;2.95;;
38113;SDS011;23926;53.222;6.354;2023-09-19T10:07:44;9.98;;;2.67;;
38113;SDS011;23926;53.222;6.354;2023-09-19T10:10:36;11.75;;;3.10;;
38113;SDS011;23926;53.222;6.354;2023-09-19T10:13:24;7.88;;;3.22;;
38113;SDS011;23926;53.222;6.354;2023-09-19T10:15:54;6.50;;;3.00;;
38113;SDS011;23926;53.222;6.354;2023-09-19T10:18:22;3.58;;;2.63;;
38113;SDS011;23926;53.222;6.354;2023-09-19T10:20:49;8.73;;;2.95;;
38113;SDS011;23926;53.222;6.354;2023-09-19T10:23:16;16.85;;;3.40;;
38113;SDS011;23926;53.222;6.354;2023-09-19T10:25:47;8.98;;;3.08;;
38113;SDS011;23926;53.222;6.354;2023-09-19T10:28:14;5.63;;;2.63;;
38113;SDS011;23926;53.222;6.354;2023-09-19T10:30:45;7.22;;;3.15;;
38113;SDS011;23926;53.222;6.354;2023-09-19T10:33:15;6.68;;;2.75;;
38113;SDS011;23926;53.222;6.354;2023-09-19T10:35:43;9.20;;;3.35;;
38113;SDS011;23926;53.222;6.354;2023-09-19T10:38:11;5.88;;;2.30;;
38113;SDS011;23926;53.222;6.354;2023-09-19T10:40:40;6.10;;;2.28;;
38113;SDS011;23926;53.222;6.354;2023-09-19T10:43:11;5.65;;;2.63;;
38113;SDS011;23926;53.222;6.354;2023-09-19T10:45:37;8.60;;;2.75;;
38113;SDS011;23926;53.222;6.354;2023-09-19T10:48:06;6.00;;;3.15;;
38113;SDS011;23926;53.222;6.354;2023-09-19T10:50:36;9.55;;;3.50;;
38113;SDS011;23926;53.222;6.354;2023-09-19T10:53:10;8.30;;;2.63;;
38113;SDS011;23926;53.222;6.354;2023-09-19T10:55:37;7.35;;;2.35;;
38113;SDS011;23926;53.222;6.354;2023-09-19T10:58:03;5.05;;;2.55;;
38113;SDS011;23926;53.222;6.354;2023-09-19T11:00:56;6.22;;;2.92;;
38113;SDS011;23926;53.222;6.354;2023-09-19T11:03:30;8.07;;;3.00;;
38113;SDS011;23926;53.222;6.354;2023-09-19T11:06:00;5.22;;;2.75;;
38113;SDS011;23926;53.222;6.354;2023-09-19T11:08:29;5.88;;;2.85;;
38113;SDS011;23926;53.222;6.354;2023-09-19T11:10:57;7.90;;;3.35;;
38113;SDS011;23926;53.222;6.354;2023-09-19T11:13:28;6.68;;;2.55;;
38113;SDS011;23926;53.222;6.354;2023-09-19T11:26:42;7.60;;;2.45;;
38113;SDS011;23926;53.222;6.354;2023-09-19T11:29:26;10.77;;;3.28;;
38113;SDS011;23926;53.222;6.354;2023-09-19T11:31:54;5.78;;;2.67;;
38113;SDS011;23926;53.222;6.354;2023-09-19T11:39:39;5.70;;;2.63;;
38113;SDS011;23926;53.222;6.354;2023-09-19T11:42:41;4.85;;;2.42;;
38113;SDS011;23926;53.222;6.354;2023-09-19T11:48:05;6.90;;;2.60;;
38113;SDS011;23926;53.222;6.354;2023-09-19T11:50:32;7.90;;;2.53;;
38113;SDS011;23926;53.222;6.354;2023-09-19T11:53:00;5.45;;;2.42;;
38113;SDS011;23926;53.222;6.354;2023-09-19T11:55:28;6.07;;;2.78;;
38113;SDS011;23926;53.222;6.354;2023-09-19T11:57:57;7.32;;;2.92;;
38113;SDS011;23926;53.222;6.354;2023-09-19T12:00:24;16.77;;;3.47;;
38113;SDS011;23926;53.222;6.354;2023-09-19T12:02:50;11.10;;;3.08;;
38113;SDS011;23926;53.222;6.354;2023-09-19T12:05:39;12.35;;;2.95;;
38113;SDS011;23926;53.222;6.354;2023-09-19T12:08:05;7.97;;;3.35;;
38113;SDS011;23926;53.222;6.354;2023-09-19T12:10:34;8.05;;;2.70;;
38113;SDS011;23926;53.222;6.354;2023-09-19T12:13:15;11.57;;;3.28;;
38113;SDS011;23926;53.222;6.354;2023-09-19T12:15:44;7.32;;;2.97;;
38113;SDS011;23926;53.222;6.354;2023-09-19T12:18:34;5.25;;;2.88;;
38113;SDS011;23926;53.222;6.354;2023-09-19T12:21:00;14.95;;;3.10;;
38113;SDS011;23926;53.222;6.354;2023-09-19T12:23:29;8.38;;;2.85;;
38113;SDS011;23926;53.222;6.354;2023-09-19T12:25:55;7.30;;;2.97;;
38113;SDS011;23926;53.222;6.354;2023-09-19T12:28:22;5.25;;;2.97;;
38113;SDS011;23926;53.222;6.354;2023-09-19T12:30:51;7.47;;;3.45;;
38113;SDS011;23926;53.222;6.354;2023-09-19T12:33:20;13.98;;;4.15;;
38113;SDS011;23926;53.222;6.354;2023-09-19T12:35:46;7.55;;;3.13;;
38113;SDS011;23926;53.222;6.354;2023-09-19T12:38:22;4.35;;;2.78;;
38113;SDS011;23926;53.222;6.354;2023-09-19T12:40:49;4.18;;;2.55;;
38113;SDS011;23926;53.222;6.354;2023-09-19T12:43:16;7.93;;;2.85;;
38113;SDS011;23926;53.222;6.354;2023-09-19T12:45:43;7.00;;;2.33;;
38113;SDS011;23926;53.222;6.354;2023-09-19T12:48:19;4.68;;;2.42;;
38113;SDS011;23926;53.222;6.354;2023-09-19T12:51:02;7.15;;;2.28;;
38113;SDS011;23926;53.222;6.354;2023-09-19T12:53:36;14.65;;;1.95;;
38113;SDS011;23926;53.222;6.354;2023-09-19T12:56:05;7.85;;;1.85;;
38113;SDS011;23926;53.222;6.354;2023-09-19T12:58:33;5.28;;;2.45;;
38113;SDS011;23926;53.222;6.354;2023-09-19T13:01:00;5.53;;;1.98;;
38113;SDS011;23926;53.222;6.354;2023-09-19T13:03:28;7.68;;;2.40;;
38113;SDS011;23926;53.222;6.354;2023-09-19T13:06:00;4.97;;;1.98;;
38113;SDS011;23926;53.222;6.354;2023-09-19T13:08:32;3.80;;;2.00;;
38113;SDS011;23926;53.222;6.354;2023-09-19T13:11:03;7.78;;;1.95;;
38113;SDS011;23926;53.222;6.354;2023-09-19T13:13:42;5.22;;;2.17;;
38113;SDS011;23926;53.222;6.354;2023-09-19T13:16:10;3.30;;;1.65;;
38113;SDS011;23926;53.222;6.354;2023-09-19T13:18:42;8.82;;;2.33;;
38113;SDS011;23926;53.222;6.354;2023-09-19T13:21:12;5.30;;;4.60;;
38113;SDS011;23926;53.222;6.354;2023-09-19T13:23:47;5.22;;;3.47;;
38113;SDS011;23926;53.222;6.354;2023-09-19T13:26:16;4.53;;;3.20;;
38113;SDS011;23926;53.222;6.354;2023-09-19T13:28:41;6.75;;;2.90;;
38113;SDS011;23926;53.222;6.354;2023-09-19T13:31:07;8.85;;;2.60;;
38113;SDS011;23926;53.222;6.354;2023-09-19T13:33:35;5.40;;;2.22;;
38113;SDS011;23926;53.222;6.354;2023-09-19T13:36:11;10.75;;;2.95;;
38113;SDS011;23926;53.222;6.354;2023-09-19T13:38:38;7.50;;;2.67;;
38113;SDS011;23926;53.222;6.354;2023-09-19T13:41:04;5.07;;;1.98;;
38113;SDS011;23926;53.222;6.354;2023-09-19T13:43:31;2.67;;;1.95;;
38113;SDS011;23926;53.222;6.354;2023-09-19T13:45:56;3.05;;;1.77;;
38113;SDS011;23926;53.222;6.354;2023-09-19T13:48:22;15.65;;;2.58;;
38113;SDS011;23926;53.222;6.354;2023-09-19T13:50:49;6.80;;;1.83;;
38113;SDS011;23926;53.222;6.354;2023-09-19T13:53:15;3.88;;;1.92;;
38113;SDS011;23926;53.222;6.354;2023-09-19T13:55:41;3.15;;;1.58;;
38113;SDS011;23926;53.222;6.354;2023-09-19T13:58:07;3.08;;;1.55;;
38113;SDS011;23926;53.222;6.354;2023-09-19T14:00:35;6.65;;;2.50;;
38113;SDS011;23926;53.222;6.354;2023-09-19T14:03:01;2.92;;;1.52;;
38113;SDS011;23926;53.222;6.354;2023-09-19T14:05:27;4.70;;;2.50;;
38113;SDS011;23926;53.222;6.354;2023-09-19T14:07:53;6.38;;;2.15;;
38113;SDS011;23926;53.222;6.354;2023-09-19T14:10:22;4.97;;;2.42;;
38113;SDS011;23926;53.222;6.354;2023-09-19T14:12:48;2.75;;;2.03;;
38113;SDS011;23926;53.222;6.354;2023-09-19T14:15:13;17.05;;;2.75;;
38113;SDS011;23926;53.222;6.354;2023-09-19T14:17:39;3.47;;;1.63;;
38113;SDS011;23926;53.222;6.354;2023-09-19T14:20:10;2.70;;;1.48;;
38113;SDS011;23926;53.222;6.354;2023-09-19T14:22:36;10.48;;;2.60;;
38113;SDS011;23926;53.222;6.354;2023-09-19T14:25:04;3.15;;;1.80;;
38113;SDS011;23926;53.222;6.354;2023-09-19T14:27:30;4.18;;;2.10;;
38113;SDS011;23926;53.222;6.354;2023-09-19T14:29:55;5.43;;;2.13;;
38113;SDS011;23926;53.222;6.354;2023-09-19T14:32:22;4.30;;;2.10;;
38113;SDS011;23926;53.222;6.354;2023-09-19T14:34:48;5.80;;;2.33;;
38113;SDS011;23926;53.222;6.354;2023-09-19T14:37:14;6.35;;;2.47;;
38113;SDS011;23926;53.222;6.354;2023-09-19T14:39:41;7.07;;;2.85;;
38113;SDS011;23926;53.222;6.354;2023-09-19T14:42:09;3.60;;;1.85;;
38113;SDS011;23926;53.222;6.354;2023-09-19T14:44:35;3.60;;;2.53;;
38113;SDS011;23926;53.222;6.354;2023-09-19T14:47:02;4.13;;;2.30;;
38113;SDS011;23926;53.222;6.354;2023-09-19T14:49:29;15.75;;;2.55;;
38113;SDS011;23926;53.222;6.354;2023-09-19T14:51:55;5.15;;;2.72;;
38113;SDS011;23926;53.222;6.354;2023-09-19T14:54:20;3.53;;;2.67;;
38113;SDS011;23926;53.222;6.354;2023-09-19T14:56:46;5.85;;;2.08;;
38113;SDS011;23926;53.222;6.354;2023-09-19T14:59:18;4.90;;;2.85;;
38113;SDS011;23926;53.222;6.354;2023-09-19T15:01:45;3.10;;;1.92;;
38113;SDS011;23926;53.222;6.354;2023-09-19T15:04:10;13.30;;;2.92;;
38113;SDS011;23926;53.222;6.354;2023-09-19T15:06:36;3.47;;;3.17;;
38113;SDS011;23926;53.222;6.354;2023-09-19T15:09:02;2.78;;;2.58;;
38113;SDS011;23926;53.222;6.354;2023-09-19T15:11:29;4.63;;;3.00;;
38113;SDS011;23926;53.222;6.354;2023-09-19T15:13:55;3.90;;;3.53;;
38113;SDS011;23926;53.222;6.354;2023-09-19T15:16:21;3.25;;;2.28;;
38113;SDS011;23926;53.222;6.354;2023-09-19T15:18:47;3.97;;;3.33;;
38113;SDS011;23926;53.222;6.354;2023-09-19T15:21:13;4.40;;;2.63;;
38113;SDS011;23926;53.222;6.354;2023-09-19T15:23:40;8.15;;;4.18;;
38113;SDS011;23926;53.222;6.354;2023-09-19T15:26:11;27.38;;;26.05;;
38113;SDS011;23926;53.222;6.354;2023-09-19T15:28:39;51.38;;;48.67;;
38113;SDS011;23926;53.222;6.354;2023-09-19T15:31:06;55.10;;;52.15;;
38113;SDS011;23926;53.222;6.354;2023-09-19T15:33:35;70.60;;;66.55;;
38113;SDS011;23926;53.222;6.354;2023-09-19T15:41:18;45.95;;;43.70;;
38113;SDS011;23926;53.222;6.354;2023-09-19T15:43:43;43.17;;;41.00;;
38113;SDS011;23926;53.222;6.354;2023-09-19T15:46:09;48.45;;;45.83;;